Historique des stations

Retrouvez les conditions météo en temps réel en cliquant ici...

Station météo de La Marche

Altitude de la station : 186 m







Données météorologiques pour le 20/10/2020
Date
Heure
Températures Humidité Point de rosée Vitesse
du vent
Direction Rafales Windchill Pression Pluviométrie
Cumul
Date
Heure
Températures Humidité Point de rosée Vitesse
du vent
Direction Rafales Windchill Pression Pluviométrie
Cumul
20/10/2020 18:4414.9 °C82 %11.7 °C21 km/hSSE42 km/h12.8 1008 hPa1.6 mm
20/10/2020 18:2914.9 °C83 %12.2 °C19 km/hSE42 km/h12.8 1008 hPa1.6 mm
20/10/2020 18:1414.9 °C83 %12.2 °C13 km/hESE42 km/h13.9 1008 hPa1.6 mm
20/10/2020 17:5914.9 °C84 %12.2 °C16 km/hN42 km/h13.3 1008 hPa1.6 mm
20/10/2020 17:4415.1 °C84 %12.2 °C16 km/hN42 km/h13.3 1008 hPa1.6 mm
20/10/2020 17:2915.1 °C85 %12.8 °C19 km/hN42 km/h12.8 1009 hPa1.4 mm
20/10/2020 17:1415.1 °C85 %12.8 °C16 km/hE42 km/h13.3 1009 hPa1.4 mm
20/10/2020 16:5915.1 °C86 %12.8 °C14 km/hN42 km/h13.3 1009 hPa1.4 mm
20/10/2020 16:4415.2 °C86 %12.8 °C11 km/hESE42 km/h14.4 1009 hPa1.4 mm
20/10/2020 16:2915.1 °C85 %12.8 °C29 km/hESE42 km/h11.7 1009 hPa1.4 mm
20/10/2020 16:1415.2 °C85 %12.8 °C21 km/hN42 km/h12.8 1010 hPa1.4 mm
20/10/2020 15:5915.2 °C85 %12.8 °C18 km/hESE42 km/h12.8 1010 hPa1.2 mm
20/10/2020 15:4415.2 °C85 %12.8 °C27 km/hSSE42 km/h11.7 1010 hPa1.2 mm
20/10/2020 15:2915.2 °C86 %12.8 °C18 km/hN42 km/h12.8 1010 hPa1.2 mm
20/10/2020 15:1415.2 °C85 %12.8 °C10 km/hSE42 km/h14.4 1010 hPa1 mm
20/10/2020 14:5915.2 °C86 %12.8 °C16 km/hSE42 km/h13.3 1010 hPa1 mm
20/10/2020 14:4415.2 °C85 %12.8 °C14 km/hSSE42 km/h13.3 1010 hPa1 mm
20/10/2020 14:2915.2 °C85 %12.8 °C18 km/hSE42 km/h12.8 1010 hPa1 mm
20/10/2020 14:1415.1 °C86 %12.8 °C14 km/hN42 km/h13.3 1010 hPa1 mm
20/10/2020 13:5914.8 °C87 %12.8 °C14 km/hN42 km/h13.3 1011 hPa1 mm
20/10/2020 13:4414.8 °C87 %12.8 °C10 km/hSE42 km/h14.4 1011 hPa0.8 mm
20/10/2020 13:2915.0 °C85 %12.8 °C11 km/hESE42 km/h14.4 1011 hPa0.6 mm
20/10/2020 13:1414.9 °C85 %12.2 °C8 km/hSE42 km/h15.0 1011 hPa0.6 mm
20/10/2020 12:5915.1 °C84 %12.2 °C19 km/hN42 km/h12.8 1011 hPa0.6 mm
20/10/2020 12:4415.0 °C83 %12.2 °C21 km/hESE42 km/h12.8 1011 hPa0.4 mm
20/10/2020 12:2915.2 °C83 %12.2 °C10 km/hS42 km/h14.4 1011 hPa0.4 mm
20/10/2020 12:1415.1 °C84 %12.2 °C16 km/hSSE42 km/h13.3 1011 hPa0.4 mm
20/10/2020 11:5914.9 °C82 %11.7 °C10 km/hS42 km/h14.4 1011 hPa0.4 mm
20/10/2020 11:4414.7 °C83 %11.7 °C16 km/hSE42 km/h12.8 1011 hPa0.4 mm
20/10/2020 11:2914.6 °C81 %11.1 °C21 km/hSSE42 km/h11.7 1011 hPa0.2 mm
20/10/2020 11:1414.4 °C81 %11.1 °C24 km/hESE42 km/h11.7 1011 hPa0.2 mm
20/10/2020 10:5914.6 °C81 %11.1 °C21 km/hSSE42 km/h11.7 1011 hPa-
20/10/2020 10:4414.7 °C79 %11.1 °C16 km/hSE42 km/h13.3 1011 hPa-
20/10/2020 10:2914.7 °C77 %10.6 °C19 km/hS42 km/h12.8 1011 hPa-
20/10/2020 10:1514.6 °C77 %10.6 °C27 km/hSSE42 km/h11.1 1010 hPa-
20/10/2020 10:0014.4 °C78 %10.6 °C19 km/hSE42 km/h12.2 1010 hPa-
20/10/2020 09:4514.3 °C79 %10.6 °C26 km/hSSE42 km/h11.1 1011 hPa-
20/10/2020 09:3014.1 °C79 %10.6 °C16 km/hESE42 km/h11.7 1010 hPa-
20/10/2020 09:1513.8 °C80 %10.6 °C14 km/hESE42 km/h12.2 1010 hPa-
20/10/2020 09:0013.7 °C81 %10.6 °C21 km/hSE42 km/h11.1 1011 hPa-
20/10/2020 08:4513.8 °C79 %10.0 °C21 km/hSE42 km/h11.1 1010 hPa-
20/10/2020 08:3014.1 °C77 %10.0 °C13 km/hN42 km/h12.8 1010 hPa-
20/10/2020 08:1514.1 °C77 %10.0 °C19 km/hN42 km/h11.7 1010 hPa-
20/10/2020 08:0014.1 °C77 %10.0 °C29 km/hSE42 km/h10.0 1010 hPa-
20/10/2020 07:4514.0 °C77 %10.0 °C29 km/hESE42 km/h10.0 1010 hPa-
20/10/2020 07:3013.8 °C77 %10.0 °C18 km/hSE42 km/h11.7 1010 hPa-
20/10/2020 07:1513.7 °C77 %10.0 °C21 km/hS42 km/h11.1 1010 hPa-
20/10/2020 07:0013.8 °C77 %10.0 °C24 km/hSSE42 km/h10.6 1010 hPa-
20/10/2020 06:4413.5 °C78 %10.0 °C13 km/hS42 km/h11.7 1010 hPa-
20/10/2020 06:2913.5 °C77 %9.4 °C18 km/hSSE42 km/h11.1 1010 hPa-
20/10/2020 06:1413.2 °C78 %9.4 °C14 km/hSSE42 km/h11.7 1010 hPa-
20/10/2020 05:5913.2 °C78 %9.4 °C26 km/hSSE42 km/h10.0 1010 hPa-
20/10/2020 05:4413.2 °C78 %9.4 °C18 km/hS42 km/h11.1 1010 hPa-
20/10/2020 05:2913.1 °C78 %9.4 °C18 km/hSSE42 km/h11.1 1011 hPa-
20/10/2020 05:1412.8 °C79 %9.4 °C23 km/hN42 km/h9.4 1011 hPa-
20/10/2020 04:5912.7 °C79 %9.4 °C8 km/hSE42 km/h12.2 1011 hPa-
20/10/2020 04:4412.7 °C78 %8.9 °C13 km/hS42 km/h11.1 1010 hPa-
20/10/2020 04:2912.8 °C78 %8.9 °C26 km/hSSE42 km/h9.4 1010 hPa-
20/10/2020 04:1412.7 °C78 %8.9 °C21 km/hSSE42 km/h10.0 1011 hPa-
20/10/2020 03:5912.8 °C78 %8.9 °C24 km/hSE42 km/h9.4 1010 hPa-
20/10/2020 03:4412.8 °C78 %8.9 °C18 km/hS42 km/h10.6 1010 hPa-
20/10/2020 03:2912.6 °C79 %8.9 °C29 km/hSSE42 km/h8.9 1010 hPa-
20/10/2020 03:1412.7 °C78 %8.9 °C31 km/hSSE42 km/h8.3 1011 hPa-
20/10/2020 02:5912.6 °C79 %8.9 °C18 km/hSE42 km/h10.6 1011 hPa-
20/10/2020 02:4412.6 °C79 %8.9 °C14 km/hSSE42 km/h11.1 1011 hPa-
20/10/2020 02:2912.4 °C79 %8.9 °C19 km/hSSE42 km/h9.4 1011 hPa-
20/10/2020 02:1412.4 °C79 %8.9 °C18 km/hSE42 km/h9.4 1010 hPa-
20/10/2020 01:5912.5 °C78 %8.9 °C23 km/hSE42 km/h9.4 1010 hPa-
20/10/2020 01:4412.4 °C78 %8.9 °C32 km/hSE42 km/h7.8 1010 hPa-
20/10/2020 01:2912.2 °C78 %8.3 °C23 km/hN42 km/h8.9 1011 hPa-
20/10/2020 01:1412.2 °C78 %8.3 °C19 km/hSSE42 km/h9.4 1011 hPa-
20/10/2020 00:5912.2 °C78 %8.3 °C21 km/hSSE42 km/h9.4 1011 hPa-
20/10/2020 00:4412.3 °C78 %8.3 °C27 km/hSE42 km/h8.3 1011 hPa-
20/10/2020 00:2912.3 °C77 %8.3 °C24 km/hSSE42 km/h8.9 1011 hPa-
20/10/2020 00:1412.2 °C78 %8.3 °C31 km/hSE40 km/h7.8 1011 hPa-


Minima :

Température : 12.2 °C
Humidité : 77 %
Point de rosée : 8.3 °C
Vent moyen : 8 km/h
Windchill : 7.8
Pression atm. : 1008 hPa
Maxima :

Température : 15.2 °C
Humidité : 87 %
Point de rosée : 12.8 °C
Vent moyen : 32 km/h
Windchill : 15.0
Pression atm. : 1011 hPa
Rafales max : 42 km/h
Cumul de pluie sur 24H : 1.6 mm

La Marche est une commune du département Nièvre (58).
La station météorologique du réseau de l'association la plus proche de La Marche est celle de Gron



Icône Facebook Association Météo Centre Icône Twitter Association Météo Centre Icône Chaîne Youtube Association Météo Centre Icône contact Association Météo Centre Icône Insta Association Météo Centre